createdAt,value
2022-10-05T00:01:44.827Z,9.70
2022-10-05T00:04:17.248Z,8.82
2022-10-05T00:06:48.664Z,8.93
2022-10-05T00:09:21.059Z,9.95
2022-10-05T00:11:51.149Z,9.02
2022-10-05T00:14:21.779Z,8.30
2022-10-05T00:16:50.975Z,8.13
2022-10-05T00:19:34.621Z,9.73
2022-10-05T00:22:12.170Z,10.50
2022-10-05T00:24:42.329Z,8.95
2022-10-05T00:27:19.059Z,5.80
2022-10-05T00:29:49.489Z,8.70
2022-10-05T00:32:18.729Z,7.57
2022-10-05T00:34:51.129Z,6.88
2022-10-05T00:37:19.909Z,5.50
2022-10-05T00:39:51.369Z,6.65
2022-10-05T00:42:42.140Z,7.63
2022-10-05T00:45:15.619Z,7.43
2022-10-05T00:47:55.860Z,7.68
2022-10-05T00:50:59.236Z,6.38
2022-10-05T00:53:42.821Z,7.43
2022-10-05T00:56:27.130Z,5.53
2022-10-05T00:59:11.851Z,6.60
2022-10-05T01:01:48.636Z,5.70
2022-10-05T01:04:27.279Z,5.32
2022-10-05T01:07:07.249Z,6.38
2022-10-05T01:09:48.090Z,6.32
2022-10-05T01:12:27.001Z,4.68
2022-10-05T01:15:04.160Z,5.78
2022-10-05T01:17:42.189Z,6.28
2022-10-05T01:20:28.869Z,6.70
2022-10-05T01:23:24.629Z,8.07
2022-10-05T01:26:09.480Z,5.57
2022-10-05T01:28:47.209Z,5.20
2022-10-05T01:31:30.467Z,8.93
2022-10-05T01:34:11.605Z,6.60
2022-10-05T01:36:49.064Z,4.10
2022-10-05T01:39:28.578Z,5.00
2022-10-05T01:42:08.079Z,4.10
2022-10-05T01:44:47.130Z,5.18
2022-10-05T01:47:23.419Z,5.70
2022-10-05T01:50:01.635Z,4.18
2022-10-05T01:52:42.450Z,3.25
2022-10-05T01:55:21.519Z,4.38
2022-10-05T01:58:03.029Z,6.22
2022-10-05T02:00:36.929Z,8.15
2022-10-05T02:03:15.000Z,3.80
2022-10-05T02:05:52.829Z,4.00
2022-10-05T02:08:30.249Z,5.97
2022-10-05T02:11:03.769Z,4.35
2022-10-05T02:13:38.560Z,5.35
2022-10-05T02:16:14.700Z,3.28
2022-10-05T02:18:50.039Z,3.35
2022-10-05T02:21:20.049Z,5.20
2022-10-05T02:23:52.468Z,4.82
2022-10-05T02:26:22.129Z,4.65
2022-10-05T02:28:54.878Z,4.43
2022-10-05T02:31:30.375Z,4.00
2022-10-05T02:36:44.220Z,4.57
2022-10-05T02:39:18.079Z,4.07
2022-10-05T02:41:54.909Z,4.00
2022-10-05T02:44:34.961Z,4.50
2022-10-05T02:47:14.858Z,3.70
2022-10-05T02:49:49.511Z,3.95
2022-10-05T02:52:27.109Z,3.77
2022-10-05T02:55:04.019Z,4.15
2022-10-05T02:57:40.460Z,3.72
2022-10-05T03:00:15.303Z,3.60
2022-10-05T03:02:54.348Z,3.95
2022-10-05T03:05:29.539Z,3.50
2022-10-05T03:08:04.009Z,3.30
2022-10-05T03:10:39.483Z,4.45
2022-10-05T03:13:15.559Z,2.97
2022-10-05T03:15:59.068Z,3.20
2022-10-05T03:18:44.439Z,5.40
2022-10-05T03:21:23.130Z,4.05
2022-10-05T03:24:09.539Z,3.13
2022-10-05T03:26:48.301Z,4.30
2022-10-05T03:29:32.064Z,3.28
2022-10-05T03:32:08.890Z,4.40
2022-10-05T03:34:46.779Z,2.30
2022-10-05T03:37:22.449Z,4.88
2022-10-05T03:39:56.429Z,2.40
2022-10-05T03:42:31.982Z,2.38
2022-10-05T03:47:45.314Z,5.75
2022-10-05T03:50:33.529Z,3.30
2022-10-05T03:53:08.408Z,2.55
2022-10-05T03:55:42.759Z,2.90
2022-10-05T03:58:17.709Z,4.78
2022-10-05T04:00:50.169Z,2.95
2022-10-05T04:03:23.570Z,2.15
2022-10-05T04:05:57.870Z,2.63
2022-10-05T04:08:37.039Z,3.53
2022-10-05T04:11:11.569Z,1.95
2022-10-05T04:13:46.329Z,2.03
2022-10-05T04:16:18.810Z,2.60
2022-10-05T04:18:51.969Z,2.83
2022-10-05T04:21:26.389Z,3.40
2022-10-05T04:24:00.888Z,3.08
2022-10-05T04:26:41.209Z,2.45
2022-10-05T04:29:17.970Z,3.22
2022-10-05T04:31:59.989Z,2.38
2022-10-05T04:34:45.189Z,3.10
2022-10-05T04:37:23.381Z,4.00
2022-10-05T04:40:07.789Z,2.58
2022-10-05T04:42:41.839Z,3.35
2022-10-05T04:45:20.079Z,1.92
2022-10-05T04:48:19.088Z,2.45
2022-10-05T04:50:59.149Z,2.90
2022-10-05T04:53:34.779Z,5.43
2022-10-05T04:58:57.239Z,3.17
2022-10-05T05:01:42.728Z,6.25
2022-10-05T05:04:38.000Z,2.67
2022-10-05T05:07:19.519Z,2.97
2022-10-05T05:10:21.869Z,1.80
2022-10-05T05:12:59.969Z,2.67
2022-10-05T05:15:38.170Z,3.92
2022-10-05T05:18:35.518Z,3.80
2022-10-05T05:21:15.329Z,2.72
2022-10-05T05:23:52.949Z,3.08
2022-10-05T05:26:32.760Z,3.72
2022-10-05T05:29:16.020Z,2.33
2022-10-05T05:31:51.469Z,1.98
2022-10-05T05:34:37.209Z,1.55
2022-10-05T05:37:16.455Z,3.78
2022-10-05T05:39:59.489Z,3.13
2022-10-05T05:42:37.289Z,4.20
2022-10-05T05:45:17.946Z,4.63
2022-10-05T05:47:54.089Z,3.50
2022-10-05T05:50:43.280Z,2.83
2022-10-05T05:53:19.129Z,3.45
2022-10-05T05:55:51.540Z,2.15
2022-10-05T05:58:26.829Z,4.60
2022-10-05T06:00:59.771Z,3.55
2022-10-05T06:03:38.391Z,3.22
2022-10-05T06:06:10.845Z,1.83
2022-10-05T06:08:44.939Z,1.95
2022-10-05T06:11:19.380Z,4.57
2022-10-05T06:13:50.319Z,3.92
2022-10-05T06:16:27.148Z,13.88
2022-10-05T06:18:59.025Z,13.25
2022-10-05T06:21:33.601Z,14.45
2022-10-05T06:24:06.660Z,7.82
2022-10-05T06:26:48.362Z,8.40
2022-10-05T06:29:24.549Z,7.97
2022-10-05T06:32:06.448Z,15.18
2022-10-05T06:34:52.643Z,21.95
2022-10-05T06:40:05.177Z,23.33
2022-10-05T06:42:53.859Z,21.55
2022-10-05T06:45:36.688Z,21.65
2022-10-05T06:48:17.501Z,27.65
2022-10-05T06:50:54.099Z,35.47
2022-10-05T06:53:35.626Z,36.58
2022-10-05T06:56:10.672Z,42.05
2022-10-05T06:58:50.470Z,44.28
2022-10-05T07:01:32.509Z,45.72
2022-10-05T07:04:20.559Z,48.05
2022-10-05T07:06:54.580Z,46.70
2022-10-05T07:09:31.629Z,50.38
2022-10-05T07:12:27.929Z,54.50
2022-10-05T07:15:09.150Z,50.53
2022-10-05T07:17:54.230Z,55.38
2022-10-05T07:20:31.931Z,48.65
2022-10-05T07:23:25.350Z,46.90
2022-10-05T07:26:03.369Z,40.95
2022-10-05T07:28:40.547Z,45.47
2022-10-05T07:31:15.280Z,42.00
2022-10-05T07:33:53.459Z,39.53
2022-10-05T07:36:49.711Z,43.03
2022-10-05T07:39:58.309Z,41.63
2022-10-05T07:42:30.119Z,41.05
2022-10-05T07:45:09.982Z,38.58
2022-10-05T07:47:45.269Z,39.65
2022-10-05T07:50:22.091Z,39.15
2022-10-05T07:52:58.329Z,38.50
2022-10-05T07:55:29.019Z,32.92
2022-10-05T07:58:07.478Z,36.45
2022-10-05T08:00:56.198Z,32.17
2022-10-05T08:03:34.329Z,32.47
2022-10-05T08:06:09.521Z,31.95
2022-10-05T08:08:46.630Z,31.10
2022-10-05T08:11:18.689Z,36.17
2022-10-05T08:13:52.440Z,29.48
2022-10-05T08:16:22.404Z,29.42
2022-10-05T08:18:58.581Z,26.35
2022-10-05T08:21:34.619Z,27.13
2022-10-05T08:24:15.539Z,30.20
2022-10-05T08:26:53.520Z,28.27
2022-10-05T08:29:30.009Z,24.92
2022-10-05T08:32:04.010Z,23.67
2022-10-05T08:34:38.762Z,28.02
2022-10-05T08:37:15.099Z,25.13
2022-10-05T08:39:52.709Z,23.55
2022-10-05T08:42:49.710Z,25.30
2022-10-05T08:45:50.256Z,24.92
2022-10-05T08:48:43.899Z,25.85
2022-10-05T08:51:44.445Z,24.08
2022-10-05T08:54:39.738Z,21.83
2022-10-05T08:57:38.620Z,23.38
2022-10-05T09:00:13.215Z,24.67
2022-10-05T09:03:11.819Z,23.67
2022-10-05T09:06:14.683Z,20.73
2022-10-05T09:09:21.939Z,20.63
2022-10-05T09:12:08.429Z,18.08
2022-10-05T09:15:01.573Z,18.45
2022-10-05T09:18:08.819Z,18.77
2022-10-05T09:20:48.309Z,17.05
2022-10-05T09:23:32.940Z,12.32
2022-10-05T09:26:25.199Z,14.18
2022-10-05T09:29:12.529Z,14.80
2022-10-05T09:32:04.499Z,16.15
2022-10-05T09:35:06.292Z,14.25
2022-10-05T09:38:09.839Z,13.00
2022-10-05T09:41:04.987Z,15.52
2022-10-05T09:44:03.384Z,13.65
2022-10-05T09:47:14.669Z,13.55
2022-10-05T09:50:19.619Z,11.43
2022-10-05T09:53:20.281Z,13.00
2022-10-05T09:56:24.432Z,13.63
2022-10-05T09:59:32.490Z,11.80
2022-10-05T10:02:20.503Z,10.82
2022-10-05T10:05:15.860Z,11.15
2022-10-05T10:07:59.150Z,12.55
2022-10-05T10:10:57.821Z,11.88
2022-10-05T10:14:01.652Z,11.30
2022-10-05T10:16:57.939Z,12.07
2022-10-05T10:19:59.553Z,11.88
2022-10-05T10:23:04.370Z,11.52
2022-10-05T10:26:05.989Z,10.50
2022-10-05T10:29:10.460Z,11.15
2022-10-05T10:31:51.149Z,11.57
2022-10-05T10:34:44.349Z,11.50
2022-10-05T10:37:34.060Z,10.40
2022-10-05T10:40:23.660Z,12.93
2022-10-05T10:43:08.000Z,10.77
2022-10-05T10:45:49.682Z,10.27
2022-10-05T10:48:50.170Z,9.82
2022-10-05T10:51:27.189Z,8.68
2022-10-05T10:54:33.160Z,10.00
2022-10-05T10:57:07.309Z,10.23
2022-10-05T11:00:09.779Z,10.63
2022-10-05T11:03:05.350Z,8.48
2022-10-05T11:05:59.829Z,9.45
2022-10-05T11:09:15.759Z,7.78
2022-10-05T11:12:26.000Z,9.02
2022-10-05T11:15:15.000Z,8.05
2022-10-05T11:18:01.245Z,7.55
2022-10-05T11:21:05.270Z,7.45
2022-10-05T11:23:55.849Z,7.63
2022-10-05T11:26:43.789Z,9.20
2022-10-05T11:29:48.919Z,6.22
2022-10-05T11:32:48.260Z,8.07
2022-10-05T11:35:50.479Z,7.60
2022-10-05T11:38:42.669Z,7.30
2022-10-05T11:41:34.401Z,8.10
2022-10-05T11:44:39.119Z,8.07
2022-10-05T11:47:18.519Z,7.50
2022-10-05T11:49:56.270Z,7.60
2022-10-05T11:52:32.289Z,6.15
2022-10-05T11:55:24.909Z,6.78
2022-10-05T11:57:57.964Z,7.20
2022-10-05T12:00:32.888Z,8.02
2022-10-05T12:03:21.309Z,5.60
2022-10-05T12:06:13.579Z,6.55
2022-10-05T12:08:56.089Z,6.55
2022-10-05T12:11:44.430Z,5.90
2022-10-05T12:14:24.399Z,5.43
2022-10-05T12:17:00.449Z,6.72
2022-10-05T12:19:36.681Z,7.10
2022-10-05T12:22:15.729Z,5.00
2022-10-05T12:25:02.361Z,5.90
2022-10-05T12:27:35.629Z,5.43
2022-10-05T12:30:15.431Z,6.03
2022-10-05T12:33:01.724Z,5.03
2022-10-05T12:35:48.042Z,5.90
2022-10-05T12:38:25.200Z,6.00
2022-10-05T12:41:05.810Z,4.50
2022-10-05T12:43:44.613Z,5.97
2022-10-05T12:46:21.669Z,5.10
2022-10-05T12:49:23.379Z,6.13
2022-10-05T12:51:59.029Z,5.45
2022-10-05T12:54:38.975Z,6.03
2022-10-05T13:57:53.352Z,4.28
2022-10-05T14:00:26.595Z,5.80
2022-10-05T14:02:57.933Z,4.88
2022-10-05T14:05:28.212Z,5.10
2022-10-05T14:07:59.090Z,3.30
2022-10-05T14:10:34.189Z,4.32
2022-10-05T14:13:21.770Z,4.30
2022-10-05T14:16:21.948Z,3.40
2022-10-05T14:18:56.219Z,4.47
2022-10-05T14:21:26.610Z,5.57
2022-10-05T14:23:57.459Z,6.32
2022-10-05T14:26:36.729Z,4.55
2022-10-05T14:29:19.443Z,6.05
2022-10-05T14:31:52.549Z,4.47
2022-10-05T14:34:30.041Z,4.57
2022-10-05T14:37:00.256Z,5.93
2022-10-05T14:39:30.199Z,5.28
2022-10-05T14:42:14.019Z,5.15
2022-10-05T14:44:43.920Z,4.22
2022-10-05T14:47:23.060Z,6.10
2022-10-05T14:50:10.906Z,6.40
2022-10-05T14:52:41.319Z,5.20
2022-10-05T14:55:31.699Z,5.90
2022-10-05T14:58:12.814Z,5.53
2022-10-05T15:00:55.639Z,4.43
2022-10-05T15:03:42.662Z,3.55
2022-10-05T15:06:22.659Z,6.20
2022-10-05T15:09:16.740Z,4.47
2022-10-05T15:11:52.475Z,4.82
2022-10-05T15:14:24.324Z,5.45
2022-10-05T15:16:57.711Z,6.25
2022-10-05T15:19:34.578Z,2.95
2022-10-05T15:22:19.078Z,7.07
2022-10-05T15:24:58.013Z,6.20
2022-10-05T15:27:37.384Z,6.78
2022-10-05T15:30:12.027Z,5.82
2022-10-05T15:32:50.711Z,6.67
2022-10-05T15:35:54.456Z,7.20
2022-10-05T15:38:26.735Z,7.43
2022-10-05T15:41:08.184Z,8.35
2022-10-05T15:43:50.895Z,6.55
2022-10-05T15:46:25.848Z,9.63
2022-10-05T15:49:05.525Z,5.82
2022-10-05T15:51:50.998Z,6.80
2022-10-05T15:55:01.994Z,5.65
2022-10-05T15:57:40.848Z,6.55
2022-10-05T16:00:14.265Z,6.03
2022-10-05T16:02:49.427Z,6.47
2022-10-05T16:05:51.464Z,6.28
2022-10-05T16:08:54.925Z,7.88
2022-10-05T16:11:38.608Z,6.53
2022-10-05T16:14:20.675Z,6.15
2022-10-05T16:17:04.547Z,7.32
2022-10-05T16:19:42.945Z,4.43
2022-10-05T16:22:20.814Z,4.57
2022-10-05T16:25:12.165Z,5.45
2022-10-05T16:27:54.515Z,8.13
2022-10-05T16:30:26.204Z,8.98
2022-10-05T16:33:05.428Z,4.95
2022-10-05T16:35:44.648Z,7.13
2022-10-05T16:38:27.984Z,7.43
2022-10-05T16:41:05.314Z,6.25
2022-10-05T16:43:45.461Z,5.35
2022-10-05T16:46:27.686Z,7.18
2022-10-05T16:49:05.379Z,5.20
2022-10-05T16:51:41.604Z,4.70
2022-10-05T16:54:20.637Z,5.63
2022-10-05T16:56:54.450Z,5.85
2022-10-05T17:00:23.821Z,5.07
2022-10-05T17:03:11.984Z,6.13
2022-10-05T17:06:06.334Z,4.60
2022-10-05T17:08:52.879Z,7.35
2022-10-05T17:11:37.149Z,6.85
2022-10-05T17:14:21.699Z,7.18
2022-10-05T17:17:03.374Z,10.95
2022-10-05T17:19:55.089Z,7.68
2022-10-05T17:22:28.584Z,3.92
2022-10-05T17:25:06.846Z,6.32
2022-10-05T17:27:52.516Z,6.05
2022-10-05T17:30:24.834Z,6.43
2022-10-05T17:32:58.533Z,4.80
2022-10-05T17:35:52.106Z,5.80
2022-10-05T17:38:23.597Z,6.40
2022-10-05T17:41:17.045Z,5.88
2022-10-05T17:44:22.524Z,6.78
2022-10-05T17:46:56.243Z,9.98
2022-10-05T17:50:15.774Z,10.40
2022-10-05T17:53:02.818Z,14.43
2022-10-05T17:56:03.734Z,8.63
2022-10-05T17:59:03.495Z,7.78
2022-10-05T18:01:34.722Z,6.75
2022-10-05T18:04:33.824Z,11.48
2022-10-05T18:07:25.437Z,11.73
2022-10-05T18:10:17.639Z,10.77
2022-10-05T18:12:49.183Z,10.88
2022-10-05T18:15:49.394Z,9.68
2022-10-05T18:18:59.148Z,10.52
2022-10-05T18:21:40.354Z,10.50
2022-10-05T18:24:37.394Z,11.50
2022-10-05T18:27:27.480Z,11.07
2022-10-05T18:30:07.974Z,10.20
2022-10-05T18:33:08.614Z,11.27
2022-10-05T18:35:51.289Z,27.95
2022-10-05T18:38:34.465Z,53.03
2022-10-05T18:41:10.247Z,44.08
2022-10-05T18:43:45.054Z,32.20
2022-10-05T18:46:29.322Z,30.08
2022-10-05T18:49:20.524Z,27.55
2022-10-05T18:51:54.045Z,30.13
2022-10-05T18:54:38.796Z,29.67
2022-10-05T18:57:43.364Z,26.85
2022-10-05T19:00:17.707Z,27.08
2022-10-05T19:02:52.463Z,25.40
2022-10-05T19:05:47.032Z,29.58
2022-10-05T19:08:27.449Z,23.77
2022-10-05T19:11:02.714Z,21.95
2022-10-05T19:13:42.359Z,22.35
2022-10-05T19:16:25.866Z,22.08
2022-10-05T19:19:11.336Z,26.40
2022-10-05T19:21:48.651Z,22.73
2022-10-05T19:24:44.659Z,20.52
2022-10-05T19:27:25.966Z,20.55
2022-10-05T19:30:14.930Z,17.42
2022-10-05T19:32:56.335Z,17.20
2022-10-05T19:35:32.759Z,17.42
2022-10-05T19:38:22.278Z,17.35
2022-10-05T19:40:58.684Z,17.25
2022-10-05T19:43:47.076Z,16.23
2022-10-05T19:46:27.782Z,15.82
2022-10-05T19:48:56.785Z,17.13
2022-10-05T19:51:31.036Z,14.95
2022-10-05T19:54:02.894Z,16.05
2022-10-05T19:56:35.374Z,15.60
2022-10-05T19:59:14.854Z,18.90
2022-10-05T20:01:51.343Z,16.35
2022-10-05T20:04:35.887Z,17.08
2022-10-05T20:07:05.247Z,19.23
2022-10-05T20:09:55.434Z,18.55
2022-10-05T20:12:24.394Z,16.38
2022-10-05T20:15:36.016Z,18.23
2022-10-05T20:18:58.651Z,17.58
2022-10-05T20:21:43.491Z,21.85
2022-10-05T20:24:14.196Z,14.75
2022-10-05T20:27:05.407Z,19.63
2022-10-05T20:29:47.344Z,13.10
2022-10-05T20:32:22.459Z,12.60
2022-10-05T20:34:56.360Z,15.02
2022-10-05T20:37:25.970Z,14.13
2022-10-05T20:40:00.574Z,18.13
2022-10-05T20:42:34.509Z,13.70
2022-10-05T20:45:07.949Z,15.52
2022-10-05T20:47:38.569Z,13.63
2022-10-05T20:50:09.687Z,15.02
2022-10-05T20:52:39.098Z,14.10
2022-10-05T20:55:09.970Z,13.00
2022-10-05T20:57:42.463Z,13.60
2022-10-05T21:00:15.464Z,15.00
2022-10-05T21:02:47.089Z,14.75
2022-10-05T21:05:16.400Z,11.23
2022-10-05T21:08:07.519Z,12.60
2022-10-05T21:10:38.304Z,13.60
2022-10-05T21:13:08.040Z,11.13
2022-10-05T21:15:37.225Z,12.82
2022-10-05T21:18:07.464Z,13.50
2022-10-05T21:20:36.394Z,10.95
2022-10-05T21:23:04.995Z,13.00
2022-10-05T21:25:34.371Z,11.35
2022-10-05T21:28:03.167Z,12.00
2022-10-05T21:30:32.184Z,11.48
2022-10-05T21:33:00.886Z,11.57
2022-10-05T21:35:31.458Z,10.88
2022-10-05T21:37:59.935Z,12.55
2022-10-05T21:40:28.515Z,9.93
2022-10-05T21:42:57.001Z,13.52
2022-10-05T21:45:25.535Z,12.35
2022-10-05T21:47:54.144Z,9.75
2022-10-05T21:50:22.679Z,11.82
2022-10-05T21:52:53.880Z,10.48
2022-10-05T21:55:23.004Z,8.90
2022-10-05T21:57:51.524Z,8.15
2022-10-05T22:00:20.848Z,10.23
2022-10-05T22:02:49.709Z,10.82
2022-10-05T22:05:18.349Z,7.57
2022-10-05T22:07:46.938Z,12.02
2022-10-05T22:10:18.390Z,13.90
2022-10-05T22:12:47.786Z,12.38
2022-10-05T22:15:16.747Z,11.55
2022-10-05T22:17:46.327Z,9.27
2022-10-05T22:20:16.024Z,14.30
2022-10-05T22:22:44.475Z,8.63
2022-10-05T22:25:13.015Z,13.43
2022-10-05T22:27:43.559Z,10.45
2022-10-05T22:30:28.360Z,9.80
2022-10-05T22:32:59.704Z,8.85
2022-10-05T22:35:32.095Z,9.43
2022-10-05T22:38:08.244Z,11.15
2022-10-05T22:40:41.495Z,9.32
2022-10-05T22:43:13.304Z,7.55
2022-10-05T22:45:42.937Z,8.80
2022-10-05T22:48:12.214Z,8.40
2022-10-05T22:50:40.834Z,12.95
2022-10-05T22:53:09.934Z,10.02
2022-10-05T22:55:38.408Z,10.15
2022-10-05T22:58:07.274Z,10.20
2022-10-05T23:00:57.533Z,7.13
2022-10-05T23:03:27.004Z,6.78
2022-10-05T23:05:58.736Z,9.80
2022-10-05T23:08:27.724Z,8.68
2022-10-05T23:11:02.185Z,9.50
2022-10-05T23:13:31.385Z,8.45
2022-10-05T23:16:07.266Z,8.90
2022-10-05T23:18:35.985Z,6.88
2022-10-05T23:21:07.695Z,7.93
2022-10-05T23:23:37.874Z,8.82
2022-10-05T23:26:08.714Z,8.20
2022-10-05T23:28:37.229Z,6.28
2022-10-05T23:31:09.536Z,7.18
2022-10-05T23:33:38.065Z,6.03
2022-10-05T23:36:10.144Z,7.03
2022-10-05T23:38:38.624Z,7.68
2022-10-05T23:41:08.904Z,7.40
2022-10-05T23:43:38.333Z,8.43
2022-10-05T23:46:08.813Z,7.05
2022-10-05T23:48:38.666Z,7.65
2022-10-05T23:51:08.264Z,6.85
2022-10-05T23:53:37.145Z,7.72
2022-10-05T23:56:06.014Z,6.65
2022-10-05T23:58:34.538Z,8.10
